Time;durP1;ratioP1;P1;durP2;ratioP2;P2;SDS_P1;SDS_P2;PMS_P1;PMS_P2;Temp;Humidity;BMP_temperature;BMP_pressure;BME280_temperature;BME280_humidity;BME280_pressure;Samples;Min_cycle;Max_cycle;Signal;HPM_P1;HPM_P2
2020/12/19 00:00:46;;;;;;;0.63;0.50;;;6.40;99.90;;;;;;5080293;28;20169;-85
2020/12/19 00:03:13;;;;;;;1.07;0.97;;;6.30;99.90;;;;;;5077956;28;20181;-85
2020/12/19 00:05:38;;;;;;;0.30;0.30;;;6.50;99.90;;;;;;5080085;28;20203;-84
2020/12/19 00:08:04;;;;;;;1.10;0.20;;;6.60;99.90;;;;;;5078478;28;20831;-84
2020/12/19 00:10:30;;;;;;;0.17;0.17;;;6.70;99.90;;;;;;5078995;28;20222;-83
2020/12/19 00:12:59;;;;;;;0.90;0.80;;;6.70;99.90;;;;;;5094604;28;20201;-88
2020/12/19 00:15:26;;;;;;;0.40;0.40;;;6.80;99.90;;;;;;5098836;28;20196;-88
2020/12/19 00:18:35;;;;;;;0.73;0.60;;;6.80;99.90;;;;;;5098388;28;20202;-89
2020/12/19 00:21:00;;;;;;;0.60;0.60;;;6.90;99.90;;;;;;5116430;22;20189;-85
2020/12/19 00:23:26;;;;;;;0.30;0.30;;;6.80;99.90;;;;;;5037343;28;20213;-84
2020/12/19 00:25:51;;;;;;;0.20;0.20;;;6.90;99.90;;;;;;5014996;28;20193;-85
2020/12/19 00:28:17;;;;;;;0.50;0.47;;;6.90;99.90;;;;;;5013880;28;20285;-85
2020/12/19 00:30:42;;;;;;;0.30;0.30;;;6.80;99.90;;;;;;5032939;28;20314;-85
2020/12/19 00:33:08;;;;;;;0.73;0.70;;;6.90;99.90;;;;;;5015268;28;20572;-85
2020/12/19 00:35:34;;;;;;;0.60;0.60;;;6.90;99.90;;;;;;5033031;28;20186;-84
2020/12/19 00:37:59;;;;;;;1.10;0.97;;;6.90;99.90;;;;;;5033131;28;20192;-85
2020/12/19 00:40:25;;;;;;;0.80;0.80;;;6.90;99.90;;;;;;5034371;28;20190;-85
2020/12/19 00:42:50;;;;;;;0.33;0.33;;;6.90;99.90;;;;;;5008312;28;20207;-85
2020/12/19 00:45:16;;;;;;;1.47;0.50;;;6.90;99.90;;;;;;5032881;28;20197;-84
2020/12/19 00:47:41;;;;;;;0.60;0.60;;;7.00;99.90;;;;;;5034032;28;20190;-84
2020/12/19 00:50:08;;;;;;;0.53;0.53;;;7.00;99.90;;;;;;5029331;28;20267;-85
2020/12/19 00:52:34;;;;;;;1.23;0.57;;;6.90;99.90;;;;;;5014609;28;20675;-85
2020/12/19 00:55:00;;;;;;;1.27;1.03;;;6.90;99.90;;;;;;5015578;28;20216;-85
2020/12/19 00:57:30;;;;;;;5.47;1.03;;;7.00;99.90;;;;;;5016152;28;20181;-84
2020/12/19 00:59:56;;;;;;;1.60;0.67;;;7.00;99.90;;;;;;5032035;28;20210;-84
2020/12/19 01:02:22;;;;;;;1.60;0.40;;;7.00;99.90;;;;;;5032564;28;20280;-85
2020/12/19 01:04:47;;;;;;;1.00;1.00;;;7.00;99.90;;;;;;5014558;28;20199;-84
2020/12/19 01:07:13;;;;;;;0.77;0.77;;;6.90;99.90;;;;;;5014208;28;20192;-85
2020/12/19 01:09:38;;;;;;;0.40;0.40;;;6.80;99.90;;;;;;5031087;28;20215;-85
2020/12/19 01:12:05;;;;;;;1.43;1.20;;;6.80;99.90;;;;;;5014853;28;20317;-85
2020/12/19 01:14:31;;;;;;;0.50;0.50;;;6.90;99.90;;;;;;5030784;28;20185;-84
2020/12/19 01:16:57;;;;;;;0.87;0.60;;;6.60;99.90;;;;;;5014872;28;20235;-85
2020/12/19 01:19:22;;;;;;;0.40;0.40;;;6.60;99.90;;;;;;5031707;28;20194;-85
2020/12/19 01:21:48;;;;;;;1.13;0.53;;;6.70;99.90;;;;;;5035876;28;20743;-85
2020/12/19 01:24:14;;;;;;;0.57;0.50;;;6.80;99.90;;;;;;5014450;28;20216;-85
2020/12/19 01:26:39;;;;;;;1.20;0.83;;;6.70;99.90;;;;;;5013771;28;20639;-85
2020/12/19 01:29:05;;;;;;;0.70;0.70;;;6.70;99.90;;;;;;5031152;28;20431;-85
2020/12/19 01:31:30;;;;;;;2.33;1.03;;;6.80;99.90;;;;;;5014243;28;20216;-84
2020/12/19 01:33:56;;;;;;;0.50;0.50;;;6.20;99.90;;;;;;5033191;28;20710;-84
2020/12/19 01:36:23;;;;;;;1.30;0.77;;;6.10;99.90;;;;;;5033389;28;20225;-84
2020/12/19 01:38:50;;;;;;;0.80;0.67;;;5.90;99.90;;;;;;5015814;28;20325;-84
2020/12/19 01:41:16;;;;;;;3.77;1.00;;;6.10;99.90;;;;;;5013848;28;20707;-85
2020/12/19 01:43:42;;;;;;;1.33;0.83;;;6.20;99.90;;;;;;5007087;28;20214;-84
2020/12/19 01:46:08;;;;;;;4.90;1.20;;;6.30;99.90;;;;;;5013676;28;20195;-85
2020/12/19 01:48:35;;;;;;;2.87;1.00;;;5.90;99.90;;;;;;5030840;28;20218;-84
2020/12/19 01:51:00;;;;;;;4.20;3.80;;;6.00;99.90;;;;;;5031209;28;20561;-84
2020/12/19 01:53:26;;;;;;;0.63;0.20;;;6.20;99.90;;;;;;5012826;28;20185;-84
2020/12/19 01:55:53;;;;;;;0.20;0.20;;;6.40;99.90;;;;;;5030609;28;20267;-85
2020/12/19 01:58:19;;;;;;;1.57;0.50;;;6.50;99.90;;;;;;5012942;28;20188;-85
2020/12/19 02:00:44;;;;;;;0.63;0.63;;;6.70;99.90;;;;;;5031543;28;20205;-85
2020/12/19 02:03:10;;;;;;;0.50;0.50;;;6.10;99.90;;;;;;5012365;28;20651;-84
2020/12/19 02:05:40;;;;;;;0.50;0.50;;;5.70;99.90;;;;;;5013743;28;20654;-85
2020/12/19 02:08:07;;;;;;;0.63;0.40;;;5.70;99.90;;;;;;5016615;28;20220;-85
2020/12/19 02:10:35;;;;;;;0.73;0.50;;;5.70;99.90;;;;;;5013165;28;20626;-84
2020/12/19 02:13:01;;;;;;;1.10;0.50;;;5.60;99.90;;;;;;5013336;28;20206;-85
2020/12/19 02:15:38;;;;;;;0.53;0.53;;;5.50;99.90;;;;;;5002903;28;20205;-84
2020/12/19 02:18:03;;;;;;;0.93;0.93;;;5.60;99.90;;;;;;5005602;28;20254;-84
2020/12/19 02:20:29;;;;;;;0.40;0.40;;;5.70;99.90;;;;;;5007852;28;20649;-85
2020/12/19 02:22:55;;;;;;;0.43;0.43;;;5.50;99.90;;;;;;5014985;28;20213;-84
2020/12/19 02:25:22;;;;;;;7.00;0.77;;;5.70;99.90;;;;;;5013517;28;20561;-85
2020/12/19 02:27:49;;;;;;;0.20;0.20;;;5.90;99.90;;;;;;5029877;28;20257;-84
2020/12/19 02:30:15;;;;;;;1.87;0.80;;;5.90;99.90;;;;;;5011485;28;20201;-85
2020/12/19 02:32:44;;;;;;;1.70;1.40;;;5.70;99.90;;;;;;5013301;28;20591;-84
2020/12/19 02:35:10;;;;;;;0.90;0.90;;;5.50;99.90;;;;;;5013893;28;20190;-84
2020/12/19 02:37:36;;;;;;;0.83;0.67;;;5.60;99.90;;;;;;5012318;28;20253;-85
2020/12/19 02:40:01;;;;;;;0.57;0.57;;;5.70;99.90;;;;;;5013130;28;20224;-85
2020/12/19 02:42:27;;;;;;;1.80;1.40;;;5.90;99.90;;;;;;5010252;28;20264;-85
2020/12/19 02:44:52;;;;;;;2.33;1.37;;;5.60;99.90;;;;;;5022950;28;20187;-85
2020/12/19 02:47:18;;;;;;;1.50;1.43;;;5.60;99.90;;;;;;5011506;28;20208;-84
2020/12/19 02:49:43;;;;;;;0.30;0.30;;;5.50;99.90;;;;;;5030720;28;20217;-84
2020/12/19 02:52:09;;;;;;;0.93;0.87;;;5.50;99.90;;;;;;5012425;28;20215;-84
2020/12/19 02:54:34;;;;;;;1.27;0.73;;;5.50;99.90;;;;;;5013719;28;20179;-84
2020/12/19 02:57:00;;;;;;;0.63;0.37;;;5.50;99.90;;;;;;5012153;28;20198;-84
2020/12/19 02:59:26;;;;;;;2.07;0.83;;;5.50;99.90;;;;;;5031378;28;20217;-86
2020/12/19 03:01:51;;;;;;;0.90;0.70;;;5.40;99.90;;;;;;5029619;28;20686;-85
2020/12/19 03:04:17;;;;;;;0.23;0.23;;;5.50;99.90;;;;;;5030780;28;20206;-85
2020/12/19 03:06:42;;;;;;;0.60;0.60;;;5.50;99.90;;;;;;5030103;28;20200;-84
2020/12/19 03:09:08;;;;;;;4.00;0.87;;;5.60;99.90;;;;;;5012246;28;20236;-84
2020/12/19 03:11:33;;;;;;;0.93;0.73;;;5.50;99.90;;;;;;5013430;28;20228;-85
2020/12/19 03:13:59;;;;;;;0.90;0.90;;;5.60;99.90;;;;;;5013329;28;20240;-85
2020/12/19 03:16:24;;;;;;;1.67;0.90;;;5.60;99.90;;;;;;5030288;28;20571;-85
2020/12/19 03:18:50;;;;;;;0.67;0.53;;;5.60;99.90;;;;;;5013133;28;20680;-84
2020/12/19 03:21:16;;;;;;;0.43;0.40;;;5.70;99.90;;;;;;5014091;28;20214;-84
2020/12/19 03:23:41;;;;;;;0.60;0.60;;;5.60;99.90;;;;;;5034359;28;20191;-84
2020/12/19 03:26:07;;;;;;;0.73;0.73;;;5.60;99.90;;;;;;5015782;28;20206;-84
2020/12/19 03:28:32;;;;;;;2.67;0.83;;;5.60;99.90;;;;;;5034609;28;20209;-84
2020/12/19 03:30:58;;;;;;;1.20;1.10;;;5.70;99.90;;;;;;5015698;28;20183;-85
2020/12/19 03:33:24;;;;;;;0.77;0.77;;;5.60;99.90;;;;;;5016906;28;20183;-84
2020/12/19 03:35:49;;;;;;;1.20;1.13;;;5.80;99.90;;;;;;5032148;28;20192;-85
2020/12/19 03:38:15;;;;;;;1.70;1.33;;;5.90;99.90;;;;;;5034361;28;20658;-84
2020/12/19 03:40:40;;;;;;;1.73;1.57;;;6.10;99.90;;;;;;5015029;28;20184;-85
2020/12/19 03:43:06;;;;;;;1.70;0.70;;;6.10;99.90;;;;;;5018984;28;20210;-85
2020/12/19 03:45:31;;;;;;;0.40;0.40;;;6.10;99.90;;;;;;5022595;28;20199;-85
2020/12/19 03:47:57;;;;;;;0.57;0.50;;;6.20;99.90;;;;;;5016373;28;20184;-85
2020/12/19 03:50:22;;;;;;;2.73;0.60;;;6.30;99.90;;;;;;5033253;28;20202;-84
2020/12/19 03:52:48;;;;;;;2.20;0.80;;;6.40;99.90;;;;;;5016747;28;20267;-85
2020/12/19 03:55:14;;;;;;;0.83;0.60;;;6.50;99.90;;;;;;5014988;28;20681;-84
2020/12/19 03:57:39;;;;;;;1.30;0.63;;;6.50;99.90;;;;;;5016992;28;20186;-84
2020/12/19 04:00:06;;;;;;;0.83;0.37;;;6.60;99.90;;;;;;5032103;28;20673;-84
2020/12/19 04:02:31;;;;;;;0.73;0.73;;;6.60;99.90;;;;;;5027542;28;20213;-85
2020/12/19 04:04:57;;;;;;;1.37;1.10;;;6.60;99.90;;;;;;5015430;28;20186;-85
2020/12/19 04:07:22;;;;;;;0.57;0.50;;;6.60;99.90;;;;;;5015807;28;20320;-84
2020/12/19 04:09:48;;;;;;;0.23;0.17;;;6.60;99.90;;;;;;5014557;28;20662;-85
2020/12/19 04:12:14;;;;;;;0.77;0.67;;;6.60;99.90;;;;;;5033719;28;20206;-85
2020/12/19 04:14:42;;;;;;;0.40;0.40;;;6.50;99.90;;;;;;5031862;28;20210;-85
2020/12/19 04:17:09;;;;;;;0.63;0.63;;;6.40;99.90;;;;;;5011601;28;20179;-85
2020/12/19 04:19:35;;;;;;;0.87;0.77;;;6.30;99.90;;;;;;5032361;28;20205;-85
2020/12/19 04:22:01;;;;;;;1.20;0.83;;;6.30;99.90;;;;;;5017506;28;20243;-84
2020/12/19 04:24:27;;;;;;;0.60;0.57;;;6.40;99.90;;;;;;5015599;28;20573;-84
2020/12/19 04:26:52;;;;;;;0.53;0.53;;;6.40;99.90;;;;;;5013109;28;20202;-85
2020/12/19 04:29:18;;;;;;;1.70;1.30;;;6.10;99.90;;;;;;5015938;28;20233;-84
2020/12/19 04:31:43;;;;;;;1.03;0.97;;;5.70;99.90;;;;;;5013166;28;20221;-84
2020/12/19 04:34:09;;;;;;;1.13;0.50;;;5.70;99.90;;;;;;5014120;28;20183;-84
2020/12/19 04:36:34;;;;;;;0.43;0.33;;;5.40;99.90;;;;;;5014202;28;20189;-84
2020/12/19 04:39:00;;;;;;;1.30;0.87;;;5.40;99.90;;;;;;5032791;28;20197;-84
2020/12/19 04:41:26;;;;;;;1.00;0.90;;;5.30;99.90;;;;;;5028820;28;20577;-84
2020/12/19 04:43:52;;;;;;;0.43;0.43;;;5.40;99.90;;;;;;5033017;28;20274;-85
2020/12/19 04:46:22;;;;;;;0.87;0.77;;;5.60;99.90;;;;;;5013235;28;20201;-84
2020/12/19 04:48:48;;;;;;;3.43;0.93;;;5.70;99.90;;;;;;5032383;28;20204;-84
2020/12/19 04:51:14;;;;;;;0.70;0.60;;;5.70;99.90;;;;;;5015675;28;20206;-84
2020/12/19 04:53:40;;;;;;;0.70;0.67;;;5.80;99.90;;;;;;5014958;28;20178;-85
2020/12/19 04:56:08;;;;;;;1.50;0.70;;;5.70;99.90;;;;;;5031095;28;20199;-85
2020/12/19 04:58:33;;;;;;;0.20;0.20;;;5.50;99.90;;;;;;5014945;28;20194;-85
2020/12/19 05:00:59;;;;;;;1.23;0.50;;;5.40;99.90;;;;;;5012988;28;20220;-85
2020/12/19 05:03:24;;;;;;;0.53;0.47;;;5.40;99.90;;;;;;5033071;28;20182;-85
2020/12/19 05:05:50;;;;;;;0.30;0.27;;;5.30;99.90;;;;;;5031490;28;20808;-85
2020/12/19 05:08:15;;;;;;;0.47;0.43;;;5.30;99.90;;;;;;5032896;28;20229;-84
2020/12/19 05:10:41;;;;;;;0.53;0.53;;;5.20;99.90;;;;;;5014474;28;20251;-85
2020/12/19 05:13:06;;;;;;;0.20;0.20;;;5.30;99.90;;;;;;5016158;28;20563;-84
2020/12/19 05:15:32;;;;;;;0.87;0.33;;;5.40;99.90;;;;;;5014088;28;20218;-84
2020/12/19 05:17:59;;;;;;;0.40;0.40;;;5.50;99.90;;;;;;5033542;28;20181;-84
2020/12/19 05:20:30;;;;;;;1.83;0.67;;;5.60;99.90;;;;;;5020707;28;20217;-85
2020/12/19 05:22:57;;;;;;;0.77;0.57;;;5.60;99.90;;;;;;5019306;28;20686;-84
2020/12/19 05:25:27;;;;;;;0.90;0.80;;;5.50;99.90;;;;;;5012736;28;20189;-84
2020/12/19 05:27:53;;;;;;;0.60;0.60;;;5.60;99.90;;;;;;5015261;28;20263;-84
2020/12/19 05:30:20;;;;;;;0.77;0.60;;;5.70;99.90;;;;;;5014937;28;20651;-85
2020/12/19 05:32:47;;;;;;;1.63;1.53;;;5.70;99.90;;;;;;5032392;28;20221;-84
2020/12/19 05:35:14;;;;;;;0.50;0.50;;;5.80;99.90;;;;;;5031232;28;20709;-84
2020/12/19 05:37:41;;;;;;;1.43;1.03;;;5.80;99.90;;;;;;5033093;28;20273;-84
2020/12/19 05:40:08;;;;;;;0.83;0.63;;;5.80;99.90;;;;;;5031911;28;20656;-85
2020/12/19 05:42:35;;;;;;;1.87;0.80;;;5.80;99.90;;;;;;5027622;28;20312;-84
2020/12/19 05:45:00;;;;;;;0.97;0.97;;;5.90;99.90;;;;;;5009855;28;20186;-85
2020/12/19 05:47:26;;;;;;;0.87;0.43;;;5.70;99.90;;;;;;5031198;28;20197;-84
2020/12/19 05:49:52;;;;;;;0.70;0.70;;;5.40;99.90;;;;;;5012492;28;20590;-85
2020/12/19 05:52:22;;;;;;;1.20;0.53;;;5.40;99.90;;;;;;5013441;28;20204;-84
2020/12/19 05:54:52;;;;;;;3.00;0.87;;;5.50;99.90;;;;;;5028501;28;20181;-84
2020/12/19 05:57:19;;;;;;;1.07;0.80;;;5.30;99.90;;;;;;4996561;28;20295;-84
2020/12/19 05:59:47;;;;;;;1.30;1.03;;;5.30;99.90;;;;;;5001704;28;20533;-83
2020/12/19 06:02:15;;;;;;;0.60;0.60;;;5.10;99.90;;;;;;5028958;28;20293;-84
2020/12/19 06:04:44;;;;;;;2.10;1.57;;;5.00;99.90;;;;;;5011740;28;20193;-83
2020/12/19 06:07:10;;;;;;;0.40;0.30;;;5.20;99.90;;;;;;5029068;28;20189;-83
2020/12/19 06:09:37;;;;;;;0.70;0.70;;;5.30;99.90;;;;;;5010671;28;20233;-83
2020/12/19 06:12:13;;;;;;;0.53;0.53;;;5.20;99.90;;;;;;5029070;28;20210;-82
2020/12/19 06:14:49;;;;;;;1.20;0.40;;;5.30;99.90;;;;;;5021711;28;20177;-83
2020/12/19 06:17:26;;;;;;;0.73;0.50;;;5.20;99.90;;;;;;5028375;28;20189;-83
2020/12/19 06:19:53;;;;;;;2.67;0.40;;;5.10;99.90;;;;;;5012603;28;20197;-84
2020/12/19 06:22:30;;;;;;;0.50;0.50;;;5.10;99.90;;;;;;5014896;28;20222;-84
2020/12/19 06:24:57;;;;;;;0.37;0.37;;;5.00;99.90;;;;;;5012605;28;20196;-83
2020/12/19 06:27:22;;;;;;;0.43;0.43;;;5.10;99.90;;;;;;5030689;28;20200;-85
2020/12/19 06:29:49;;;;;;;0.67;0.67;;;5.00;99.90;;;;;;5012498;28;20243;-85
2020/12/19 06:32:22;;;;;;;0.20;0.20;;;5.00;99.90;;;;;;5029521;28;20232;-84
2020/12/19 06:35:04;;;;;;;0.43;0.40;;;4.90;99.90;;;;;;5026737;28;20196;-84
2020/12/19 06:37:31;;;;;;;0.43;0.43;;;4.90;99.90;;;;;;5019476;28;20545;-85
2020/12/19 06:40:20;;;;;;;0.20;0.20;;;4.90;99.90;;;;;;5030967;28;20277;-85
2020/12/19 06:42:47;;;;;;;2.53;0.47;;;5.00;99.90;;;;;;5007957;28;20215;-83
2020/12/19 06:45:27;;;;;;;0.83;0.80;;;5.00;99.90;;;;;;5013199;28;20710;-83
2020/12/19 06:47:54;;;;;;;0.73;0.53;;;5.00;99.90;;;;;;5036002;28;20269;-83
2020/12/19 06:50:21;;;;;;;0.90;0.40;;;5.00;99.90;;;;;;5010313;28;20218;-83
2020/12/19 06:52:57;;;;;;;2.97;0.50;;;5.00;99.90;;;;;;5012355;28;20207;-84
2020/12/19 06:55:26;;;;;;;0.37;0.37;;;5.10;99.90;;;;;;5033505;28;20193;-84
2020/12/19 06:57:59;;;;;;;0.73;0.60;;;5.20;99.90;;;;;;5034073;28;20194;-83
2020/12/19 07:00:29;;;;;;;0.30;0.30;;;5.00;99.90;;;;;;5024130;28;20190;-83
2020/12/19 07:02:57;;;;;;;2.60;1.07;;;5.00;99.90;;;;;;5031983;28;20246;-83
2020/12/19 07:05:24;;;;;;;1.50;1.23;;;5.00;99.90;;;;;;5016454;28;20234;-83
2020/12/19 07:07:51;;;;;;;0.67;0.67;;;5.00;99.90;;;;;;5033559;28;20574;-83
2020/12/19 07:10:35;;;;;;;0.83;0.70;;;4.80;99.90;;;;;;5020877;28;20277;-84
2020/12/19 07:13:01;;;;;;;0.37;0.37;;;4.80;99.90;;;;;;5043532;28;20204;-83
2020/12/19 07:15:46;;;;;;;0.87;0.40;;;4.90;99.90;;;;;;5023256;28;20272;-84
2020/12/19 07:18:32;;;;;;;0.20;0.20;;;4.70;99.90;;;;;;5023820;28;20665;-84
2020/12/19 07:21:02;;;;;;;0.20;0.20;;;4.50;99.90;;;;;;5022473;28;20219;-85
2020/12/19 07:23:29;;;;;;;2.27;1.33;;;4.40;99.90;;;;;;5036843;28;20220;-84
2020/12/19 07:25:55;;;;;;;1.53;0.83;;;4.20;99.90;;;;;;5023047;28;20195;-84
2020/12/19 07:28:20;;;;;;;0.40;0.33;;;4.40;99.90;;;;;;5039157;28;20267;-83
2020/12/19 07:30:46;;;;;;;0.27;0.27;;;4.50;99.90;;;;;;5023622;28;20181;-84
2020/12/19 07:33:12;;;;;;;0.33;0.33;;;4.50;99.90;;;;;;5034577;28;20271;-83
2020/12/19 07:35:38;;;;;;;0.43;0.20;;;4.60;99.90;;;;;;5036021;28;20185;-83
2020/12/19 07:38:04;;;;;;;0.33;0.33;;;4.60;99.90;;;;;;5041237;28;20299;-83
2020/12/19 07:40:30;;;;;;;0.27;0.27;;;4.80;99.90;;;;;;5039104;28;20677;-83
2020/12/19 07:43:07;;;;;;;2.53;0.77;;;5.00;99.90;;;;;;5021897;28;20217;-83
2020/12/19 07:45:34;;;;;;;0.30;0.30;;;4.80;99.90;;;;;;5039321;28;20189;-83
2020/12/19 07:47:59;;;;;;;0.47;0.47;;;4.90;99.90;;;;;;5041781;28;20815;-84
2020/12/19 07:50:25;;;;;;;0.67;0.60;;;4.90;99.90;;;;;;5023933;28;20216;-82
2020/12/19 07:53:03;;;;;;;1.70;0.60;;;4.80;99.90;;;;;;5019607;28;20300;-84
2020/12/19 07:55:29;;;;;;;2.13;0.70;;;4.70;99.90;;;;;;5012214;28;20182;-83
2020/12/19 07:57:55;;;;;;;1.00;0.77;;;4.90;99.90;;;;;;5032486;28;20197;-83
2020/12/19 08:00:24;;;;;;;0.20;0.20;;;5.00;99.90;;;;;;5031701;28;20244;-83
2020/12/19 08:02:50;;;;;;;0.73;0.40;;;4.90;99.90;;;;;;5014637;28;20210;-82
2020/12/19 08:05:16;;;;;;;0.23;0.23;;;4.90;99.90;;;;;;5014680;28;20193;-83
2020/12/19 08:07:42;;;;;;;0.30;0.30;;;4.90;99.90;;;;;;5031256;28;20189;-84
2020/12/19 08:10:12;;;;;;;0.20;0.20;;;5.00;99.90;;;;;;5031369;28;20229;-84
2020/12/19 08:12:41;;;;;;;0.10;0.10;;;5.00;99.90;;;;;;5032246;28;20210;-84
2020/12/19 08:15:11;;;;;;;1.17;1.07;;;5.00;99.90;;;;;;5015370;28;20188;-85
2020/12/19 08:18:00;;;;;;;1.33;0.30;;;5.00;99.90;;;;;;5030031;28;20213;-85
2020/12/19 08:20:34;;;;;;;0.30;0.30;;;5.10;99.90;;;;;;5014742;28;20229;-83
2020/12/19 08:23:03;;;;;;;1.70;1.27;;;5.00;99.90;;;;;;5020316;28;20230;-84
2020/12/19 08:25:29;;;;;;;0.60;0.60;;;5.20;99.90;;;;;;5018466;28;20189;-84
2020/12/19 08:27:55;;;;;;;0.50;0.50;;;5.30;99.90;;;;;;5012783;28;20204;-83
2020/12/19 08:30:23;;;;;;;0.20;0.20;;;5.50;99.90;;;;;;5012034;28;20759;-84
2020/12/19 08:32:51;;;;;;;1.03;0.83;;;5.60;99.90;;;;;;5030018;28;20684;-84
2020/12/19 08:35:29;;;;;;;0.30;0.30;;;5.60;99.90;;;;;;5012095;28;20190;-84
2020/12/19 08:38:07;;;;;;;0.57;0.57;;;5.80;99.90;;;;;;5008034;28;20198;-83
2020/12/19 08:40:41;;;;;;;1.23;0.57;;;5.80;99.90;;;;;;5012517;28;20658;-83
2020/12/19 08:43:09;;;;;;;0.60;0.60;;;5.90;99.90;;;;;;5018796;28;20210;-83
2020/12/19 08:45:48;;;;;;;0.97;0.40;;;5.90;99.90;;;;;;5019789;28;20199;-84
2020/12/19 08:48:21;;;;;;;0.40;0.40;;;6.00;99.90;;;;;;5014500;28;20284;-83
2020/12/19 08:50:48;;;;;;;0.40;0.40;;;6.00;99.90;;;;;;5015151;28;20200;-83
2020/12/19 08:53:18;;;;;;;0.50;0.50;;;5.70;99.90;;;;;;5014385;28;20294;-83
2020/12/19 08:55:45;;;;;;;0.27;0.27;;;5.80;99.90;;;;;;5015273;28;20196;-83
2020/12/19 08:58:19;;;;;;;0.27;0.27;;;5.90;99.90;;;;;;5018486;28;20197;-83
2020/12/19 09:00:45;;;;;;;0.20;0.20;;;6.00;99.90;;;;;;5032222;28;20204;-83
2020/12/19 09:03:11;;;;;;;0.40;0.40;;;6.00;99.90;;;;;;5015977;28;20210;-83
2020/12/19 09:05:42;;;;;;;0.50;0.50;;;6.00;99.90;;;;;;5016232;28;20189;-83
2020/12/19 09:08:12;;;;;;;0.80;0.50;;;6.00;99.90;;;;;;5033368;28;20193;-84
2020/12/19 09:10:39;;;;;;;1.17;0.50;;;5.90;99.90;;;;;;5015944;28;20191;-83
2020/12/19 09:13:35;;;;;;;0.60;0.27;;;5.80;99.90;;;;;;5036800;28;20256;-84
2020/12/19 09:16:09;;;;;;;0.40;0.40;;;6.00;99.90;;;;;;5018355;28;20611;-83
2020/12/19 09:18:37;;;;;;;1.60;1.23;;;6.20;99.90;;;;;;5029287;28;20197;-83
2020/12/19 09:21:05;;;;;;;0.77;0.63;;;6.10;99.90;;;;;;5032711;28;20269;-84
2020/12/19 09:23:30;;;;;;;0.20;0.20;;;6.30;99.90;;;;;;5037916;28;20869;-83
2020/12/19 09:25:59;;;;;;;0.43;0.43;;;6.50;99.90;;;;;;5011690;28;20210;-83
2020/12/19 09:28:25;;;;;;;0.87;0.57;;;6.70;99.90;;;;;;5013004;28;20662;-84
2020/12/19 09:30:52;;;;;;;1.10;0.70;;;6.70;99.90;;;;;;5027556;28;20189;-84
2020/12/19 09:33:19;;;;;;;0.67;0.67;;;6.70;99.90;;;;;;5029909;28;20202;-82
2020/12/19 09:35:44;;;;;;;0.50;0.50;;;6.50;99.90;;;;;;5013427;28;20790;-82
2020/12/19 09:38:10;;;;;;;0.33;0.33;;;6.30;99.90;;;;;;5013494;28;20190;-83
2020/12/19 09:40:36;;;;;;;0.73;0.63;;;6.00;99.90;;;;;;5013428;28;20236;-83
2020/12/19 09:43:02;;;;;;;0.43;0.43;;;6.00;99.90;;;;;;5017009;28;20601;-83
2020/12/19 09:45:27;;;;;;;0.73;0.67;;;6.00;99.90;;;;;;5012067;28;20179;-82
2020/12/19 09:47:55;;;;;;;0.60;0.60;;;6.00;99.90;;;;;;5027200;28;20182;-82
2020/12/19 09:50:21;;;;;;;0.60;0.60;;;6.20;99.90;;;;;;5013567;28;20577;-82
2020/12/19 09:52:47;;;;;;;0.70;0.37;;;6.40;99.90;;;;;;5031910;28;20210;-83
2020/12/19 09:55:13;;;;;;;1.50;0.67;;;6.60;99.90;;;;;;5014902;28;20262;-83
2020/12/19 09:57:39;;;;;;;0.40;0.40;;;6.50;99.90;;;;;;5028416;28;20194;-82
2020/12/19 10:00:06;;;;;;;0.40;0.40;;;6.70;99.90;;;;;;5014022;28;20213;-84
2020/12/19 10:02:32;;;;;;;1.20;0.63;;;6.70;99.90;;;;;;5014701;28;20217;-83
2020/12/19 10:04:57;;;;;;;1.03;0.67;;;6.80;99.90;;;;;;5014161;28;20192;-82
2020/12/19 10:07:23;;;;;;;0.33;0.30;;;6.70;99.90;;;;;;5031970;28;20190;-83
2020/12/19 10:09:48;;;;;;;1.43;0.50;;;6.70;99.90;;;;;;5031646;28;20859;-82
2020/12/19 10:12:14;;;;;;;2.73;0.50;;;6.90;99.90;;;;;;5031291;28;20206;-83
2020/12/19 10:14:40;;;;;;;3.00;0.77;;;7.20;99.90;;;;;;5011859;28;20673;-83
2020/12/19 10:17:05;;;;;;;1.00;0.70;;;7.50;99.90;;;;;;5013533;28;20196;-83
2020/12/19 10:19:32;;;;;;;0.83;0.53;;;7.70;99.90;;;;;;5014161;28;20187;-83
2020/12/19 10:21:58;;;;;;;0.63;0.63;;;7.90;99.90;;;;;;5031830;28;20210;-83
2020/12/19 10:24:24;;;;;;;0.93;0.63;;;7.90;99.90;;;;;;5030171;28;20183;-83
2020/12/19 10:26:50;;;;;;;2.23;1.70;;;7.80;99.90;;;;;;5028209;28;20638;-83
2020/12/19 10:29:15;;;;;;;1.00;1.00;;;7.40;99.90;;;;;;5009590;28;20234;-84
2020/12/19 10:31:41;;;;;;;1.07;0.93;;;7.70;99.90;;;;;;5009273;28;20216;-83
2020/12/19 10:34:07;;;;;;;0.50;0.50;;;7.90;99.90;;;;;;5010997;28;20252;-83
2020/12/19 10:36:32;;;;;;;0.43;0.30;;;8.10;99.90;;;;;;5030040;28;20205;-83
2020/12/19 10:38:58;;;;;;;0.93;0.80;;;8.20;99.90;;;;;;5028708;28;20189;-83
2020/12/19 10:41:24;;;;;;;0.63;0.57;;;7.70;99.90;;;;;;5009737;28;20595;-84
2020/12/19 10:43:50;;;;;;;0.30;0.30;;;7.70;99.90;;;;;;5011004;28;20182;-83
2020/12/19 10:46:27;;;;;;;0.80;0.53;;;8.00;99.90;;;;;;5028922;28;20182;-82
2020/12/19 10:48:53;;;;;;;1.00;0.80;;;8.30;99.90;;;;;;5027299;28;20293;-83
2020/12/19 10:51:26;;;;;;;0.60;0.60;;;7.60;99.90;;;;;;5009866;28;20289;-84
2020/12/19 10:53:52;;;;;;;0.80;0.80;;;7.60;99.90;;;;;;5011392;28;20190;-83
2020/12/19 10:56:19;;;;;;;1.27;0.40;;;7.70;99.90;;;;;;5011905;28;20236;-83
2020/12/19 10:58:44;;;;;;;3.87;3.20;;;7.40;99.90;;;;;;5010208;28;20702;-83
2020/12/19 11:01:10;;;;;;;1.07;1.03;;;7.00;99.90;;;;;;5024625;28;20278;-83
2020/12/19 11:03:36;;;;;;;1.07;1.07;;;7.00;99.90;;;;;;5011105;28;20732;-83
2020/12/19 11:06:01;;;;;;;0.57;0.57;;;7.20;99.90;;;;;;5030309;28;20198;-83
2020/12/19 11:08:27;;;;;;;1.10;0.73;;;7.30;99.90;;;;;;5012525;28;20190;-83
2020/12/19 11:10:52;;;;;;;2.27;1.20;;;7.60;99.90;;;;;;5010702;28;20566;-83
2020/12/19 11:13:18;;;;;;;3.03;1.83;;;7.50;99.90;;;;;;5027276;28;20203;-83
2020/12/19 11:15:43;;;;;;;3.50;1.27;;;7.40;99.90;;;;;;5010315;28;20198;-83
2020/12/19 11:18:09;;;;;;;1.37;0.60;;;7.70;99.90;;;;;;5026357;28;20191;-83
2020/12/19 11:20:35;;;;;;;1.03;0.93;;;8.20;99.90;;;;;;5009153;28;21189;-83
2020/12/19 11:23:01;;;;;;;2.20;1.33;;;8.20;99.90;;;;;;5013200;28;20249;-84
2020/12/19 11:25:27;;;;;;;1.30;1.23;;;8.30;99.90;;;;;;5028490;28;20198;-83
2020/12/19 11:27:52;;;;;;;0.93;0.70;;;8.50;99.90;;;;;;5011712;28;20195;-84
2020/12/19 11:30:18;;;;;;;0.47;0.40;;;8.60;99.90;;;;;;5027330;28;20213;-83
2020/12/19 11:32:43;;;;;;;0.57;0.50;;;8.70;99.90;;;;;;5028048;28;20200;-82
2020/12/19 11:35:09;;;;;;;0.67;0.43;;;9.00;99.90;;;;;;5015369;28;20191;-82
2020/12/19 11:37:35;;;;;;;2.40;0.90;;;8.90;99.90;;;;;;5012221;28;20191;-83
2020/12/19 11:40:00;;;;;;;3.03;0.60;;;8.70;99.90;;;;;;5019451;28;20261;-83
2020/12/19 11:42:26;;;;;;;2.27;1.53;;;8.50;99.90;;;;;;5018396;28;20206;-84
2020/12/19 11:44:51;;;;;;;1.33;1.23;;;8.60;99.90;;;;;;5037316;28;20191;-83
2020/12/19 11:47:17;;;;;;;1.17;1.10;;;8.20;99.90;;;;;;5024891;28;20194;-83
2020/12/19 11:49:42;;;;;;;0.93;0.53;;;8.10;99.90;;;;;;5027267;28;20220;-83
2020/12/19 11:52:09;;;;;;;0.63;0.63;;;8.00;99.90;;;;;;5039631;28;20206;-83
2020/12/19 11:54:38;;;;;;;0.67;0.63;;;7.90;99.90;;;;;;5023773;28;20546;-83
2020/12/19 11:57:05;;;;;;;0.90;0.77;;;8.00;99.90;;;;;;5020111;28;20286;-83
2020/12/19 11:59:31;;;;;;;0.70;0.70;;;8.30;99.90;;;;;;5043573;28;20230;-83
2020/12/19 12:02:03;;;;;;;1.17;0.97;;;8.40;99.90;;;;;;5040593;28;20689;-82
2020/12/19 12:04:29;;;;;;;1.73;1.63;;;7.90;99.90;;;;;;5019459;28;20186;-82
2020/12/19 12:06:55;;;;;;;2.33;0.97;;;7.70;99.90;;;;;;5013464;28;20296;-83
2020/12/19 12:09:20;;;;;;;2.37;1.63;;;7.80;99.90;;;;;;5034177;28;20312;-83
2020/12/19 12:11:46;;;;;;;3.13;0.93;;;7.80;99.90;;;;;;5032165;28;20206;-83
2020/12/19 12:14:12;;;;;;;1.77;1.03;;;7.80;99.90;;;;;;5030291;28;20190;-83
2020/12/19 12:16:37;;;;;;;1.90;1.57;;;7.90;99.90;;;;;;5033240;28;20205;-82
2020/12/19 12:19:03;;;;;;;1.20;1.00;;;8.10;99.90;;;;;;5012957;28;20683;-83
2020/12/19 12:21:38;;;;;;;1.00;1.00;;;8.20;99.90;;;;;;5012603;28;20224;-82
2020/12/19 12:24:05;;;;;;;0.80;0.80;;;8.50;99.90;;;;;;5038361;28;20190;-83
2020/12/19 12:26:31;;;;;;;2.97;1.13;;;8.60;99.90;;;;;;5030079;28;20201;-83
2020/12/19 12:28:58;;;;;;;0.50;0.50;;;8.70;99.90;;;;;;5005825;28;20368;-83
2020/12/19 12:31:29;;;;;;;0.97;0.90;;;8.70;99.90;;;;;;5032386;28;20312;-83
2020/12/19 12:33:56;;;;;;;1.00;0.80;;;9.00;99.90;;;;;;5033185;28;20198;-83
2020/12/19 12:36:23;;;;;;;0.83;0.83;;;9.10;99.90;;;;;;5013813;28;20186;-84
2020/12/19 12:38:49;;;;;;;0.40;0.40;;;9.20;99.90;;;;;;5013323;28;20183;-83
2020/12/19 12:41:15;;;;;;;0.43;0.40;;;9.20;99.90;;;;;;5012068;28;20221;-84
2020/12/19 12:43:41;;;;;;;1.20;0.60;;;9.20;99.90;;;;;;5014837;28;20205;-83
2020/12/19 12:46:12;;;;;;;0.37;0.37;;;9.20;99.90;;;;;;5015808;28;20195;-83
2020/12/19 12:48:37;;;;;;;0.70;0.60;;;9.10;99.90;;;;;;5012397;28;20240;-82
2020/12/19 12:51:10;;;;;;;0.30;0.30;;;9.00;99.90;;;;;;5015557;28;20608;-83
2020/12/19 12:53:35;;;;;;;0.77;0.67;;;8.70;99.90;;;;;;5014771;28;20186;-83
2020/12/19 12:56:01;;;;;;;0.80;0.80;;;8.40;99.90;;;;;;5030645;28;20243;-81
2020/12/19 12:58:27;;;;;;;0.90;0.90;;;8.40;99.90;;;;;;5012641;28;20270;-82